sensor_id;sensor_type;location;lat;lon;timestamp;pressure;altitude;pressure_sealevel;temperature;humidity
62655;BME280;48717;55.556;37.816;2023-03-13T00:01:40;98046.41;;;-3.25;66.96
62655;BME280;48717;55.556;37.816;2023-03-13T00:04:08;98043.91;;;-3.20;66.84
62655;BME280;48717;55.556;37.816;2023-03-13T00:06:37;98047.63;;;-3.10;67.43
62655;BME280;48717;55.556;37.816;2023-03-13T00:09:06;98047.25;;;-3.24;67.27
62655;BME280;48717;55.556;37.816;2023-03-13T00:11:34;98043.41;;;-3.41;66.81
62655;BME280;48717;55.556;37.816;2023-03-13T00:14:03;98045.25;;;-3.36;66.86
62655;BME280;48717;55.556;37.816;2023-03-13T00:16:31;98060.88;;;-3.30;66.87
62655;BME280;48717;55.556;37.816;2023-03-13T00:19:00;98040.72;;;-3.45;66.40
62655;BME280;48717;55.556;37.816;2023-03-13T00:21:28;98078.75;;;-3.36;67.20
62655;BME280;48717;55.556;37.816;2023-03-13T00:23:57;98050.59;;;-3.29;66.30
62655;BME280;48717;55.556;37.816;2023-03-13T00:26:28;98065.53;;;-3.17;66.79
62655;BME280;48717;55.556;37.816;2023-03-13T00:28:56;98073.91;;;-3.24;67.14
62655;BME280;48717;55.556;37.816;2023-03-13T00:31:30;98081.31;;;-3.03;66.08
62655;BME280;48717;55.556;37.816;2023-03-13T00:34:02;98090.34;;;-3.20;66.53
62655;BME280;48717;55.556;37.816;2023-03-13T00:36:32;98082.81;;;-3.12;66.49
62655;BME280;48717;55.556;37.816;2023-03-13T00:39:01;98069.09;;;-3.11;65.40
62655;BME280;48717;55.556;37.816;2023-03-13T00:41:30;98092.25;;;-3.13;65.87
62655;BME280;48717;55.556;37.816;2023-03-13T00:43:58;98083.63;;;-3.13;64.99
62655;BME280;48717;55.556;37.816;2023-03-13T00:46:27;98055.50;;;-3.38;65.27
62655;BME280;48717;55.556;37.816;2023-03-13T00:48:55;98106.03;;;-3.11;65.75
62655;BME280;48717;55.556;37.816;2023-03-13T00:51:23;98083.06;;;-3.35;66.08
62655;BME280;48717;55.556;37.816;2023-03-13T00:53:54;98121.13;;;-3.26;66.04
62655;BME280;48717;55.556;37.816;2023-03-13T00:56:22;98125.34;;;-3.29;65.85
62655;BME280;48717;55.556;37.816;2023-03-13T00:58:49;98128.72;;;-3.31;65.88
62655;BME280;48717;55.556;37.816;2023-03-13T01:01:42;98131.38;;;-3.28;66.48
62655;BME280;48717;55.556;37.816;2023-03-13T01:04:11;98087.72;;;-3.54;65.43
62655;BME280;48717;55.556;37.816;2023-03-13T01:06:40;98141.50;;;-3.36;65.19
62655;BME280;48717;55.556;37.816;2023-03-13T01:09:11;98136.88;;;-3.48;65.85
62655;BME280;48717;55.556;37.816;2023-03-13T01:11:40;98114.38;;;-3.54;65.78
62655;BME280;48717;55.556;37.816;2023-03-13T01:14:11;98150.66;;;-3.46;65.40
62655;BME280;48717;55.556;37.816;2023-03-13T01:16:39;98163.50;;;-3.47;65.92
62655;BME280;48717;55.556;37.816;2023-03-13T01:19:09;98140.69;;;-3.65;66.54
62655;BME280;48717;55.556;37.816;2023-03-13T01:21:40;98161.31;;;-3.64;66.69
62655;BME280;48717;55.556;37.816;2023-03-13T01:24:08;98176.16;;;-3.55;66.07
62655;BME280;48717;55.556;37.816;2023-03-13T01:26:35;98163.88;;;-3.65;66.90
62655;BME280;48717;55.556;37.816;2023-03-13T01:29:03;98183.44;;;-3.71;66.56
62655;BME280;48717;55.556;37.816;2023-03-13T01:31:34;98189.63;;;-3.65;67.40
62655;BME280;48717;55.556;37.816;2023-03-13T01:34:05;98194.59;;;-3.72;67.64
62655;BME280;48717;55.556;37.816;2023-03-13T01:36:34;98202.53;;;-3.64;67.28
62655;BME280;48717;55.556;37.816;2023-03-13T01:39:01;98166.59;;;-3.88;66.52
62655;BME280;48717;55.556;37.816;2023-03-13T01:41:29;98213.28;;;-3.79;66.96
62655;BME280;48717;55.556;37.816;2023-03-13T01:43:57;98220.91;;;-3.82;66.31
62655;BME280;48717;55.556;37.816;2023-03-13T01:46:30;98204.34;;;-3.90;66.99
62655;BME280;48717;55.556;37.816;2023-03-13T01:49:30;98232.81;;;-3.86;67.52
62655;BME280;48717;55.556;37.816;2023-03-13T01:55:07;98241.66;;;-4.05;67.49
62655;BME280;48717;55.556;37.816;2023-03-13T01:57:44;98250.41;;;-4.00;68.25
62655;BME280;48717;55.556;37.816;2023-03-13T02:00:16;98264.06;;;-4.02;69.02
62655;BME280;48717;55.556;37.816;2023-03-13T02:02:47;98240.53;;;-4.13;68.16
62655;BME280;48717;55.556;37.816;2023-03-13T02:05:18;98257.19;;;-4.02;68.08
62655;BME280;48717;55.556;37.816;2023-03-13T02:07:47;98270.78;;;-4.06;68.86
62655;BME280;48717;55.556;37.816;2023-03-13T02:10:17;98216.16;;;-4.51;68.31
62655;BME280;48717;55.556;37.816;2023-03-13T02:12:44;98253.00;;;-4.26;69.63
62655;BME280;48717;55.556;37.816;2023-03-13T02:15:18;98287.78;;;-4.11;68.53
62655;BME280;48717;55.556;37.816;2023-03-13T02:17:47;98262.75;;;-4.15;69.10
62655;BME280;48717;55.556;37.816;2023-03-13T02:20:18;98300.03;;;-4.04;68.74
62655;BME280;48717;55.556;37.816;2023-03-13T02:23:13;98295.72;;;-4.05;68.05
62655;BME280;48717;55.556;37.816;2023-03-13T02:25:47;98307.47;;;-4.13;69.92
62655;BME280;48717;55.556;37.816;2023-03-13T02:28:23;98311.69;;;-4.15;69.43
62655;BME280;48717;55.556;37.816;2023-03-13T02:30:54;98291.56;;;-4.27;69.64
62655;BME280;48717;55.556;37.816;2023-03-13T02:33:25;98309.38;;;-4.08;69.20
62655;BME280;48717;55.556;37.816;2023-03-13T02:35:54;98327.19;;;-4.14;69.26
62655;BME280;48717;55.556;37.816;2023-03-13T02:38:24;98326.16;;;-4.19;69.28
62655;BME280;48717;55.556;37.816;2023-03-13T02:40:53;98313.53;;;-4.37;69.26
62655;BME280;48717;55.556;37.816;2023-03-13T02:43:29;98309.31;;;-4.35;69.64
62655;BME280;48717;55.556;37.816;2023-03-13T02:48:41;98340.69;;;-4.21;70.02
62655;BME280;48717;55.556;37.816;2023-03-13T02:51:24;98342.25;;;-4.25;70.05
62655;BME280;48717;55.556;37.816;2023-03-13T02:53:55;98357.75;;;-4.23;71.11
62655;BME280;48717;55.556;37.816;2023-03-13T02:56:25;98365.72;;;-4.41;70.65
62655;BME280;48717;55.556;37.816;2023-03-13T02:58:54;98336.66;;;-4.63;70.20
62655;BME280;48717;55.556;37.816;2023-03-13T03:01:24;98348.06;;;-4.55;71.15
62655;BME280;48717;55.556;37.816;2023-03-13T03:03:51;98359.91;;;-4.60;70.92
62655;BME280;48717;55.556;37.816;2023-03-13T03:06:18;98372.06;;;-4.56;71.77
62655;BME280;48717;55.556;37.816;2023-03-13T03:08:46;98379.06;;;-4.52;71.20
62655;BME280;48717;55.556;37.816;2023-03-13T03:11:14;98377.22;;;-4.56;70.28
62655;BME280;48717;55.556;37.816;2023-03-13T03:13:44;98398.16;;;-4.69;71.03
62655;BME280;48717;55.556;37.816;2023-03-13T03:16:13;98364.72;;;-4.69;70.81
62655;BME280;48717;55.556;37.816;2023-03-13T03:18:41;98384.09;;;-4.55;71.75
62655;BME280;48717;55.556;37.816;2023-03-13T03:21:08;98399.16;;;-4.66;70.74
62655;BME280;48717;55.556;37.816;2023-03-13T03:23:37;98396.81;;;-4.60;71.36
62655;BME280;48717;55.556;37.816;2023-03-13T03:26:05;98393.13;;;-4.66;72.13
62655;BME280;48717;55.556;37.816;2023-03-13T03:28:33;98349.91;;;-5.00;72.06
62655;BME280;48717;55.556;37.816;2023-03-13T03:31:09;98405.88;;;-4.69;72.38
62655;BME280;48717;55.556;37.816;2023-03-13T03:33:37;98413.19;;;-4.80;72.20
62655;BME280;48717;55.556;37.816;2023-03-13T03:36:14;98412.44;;;-4.78;72.34
62655;BME280;48717;55.556;37.816;2023-03-13T03:38:44;98408.59;;;-4.89;71.34
62655;BME280;48717;55.556;37.816;2023-03-13T03:41:14;98417.22;;;-4.87;71.19
62655;BME280;48717;55.556;37.816;2023-03-13T03:43:42;98409.94;;;-4.99;73.02
62655;BME280;48717;55.556;37.816;2023-03-13T03:46:13;98389.31;;;-5.01;72.49
62655;BME280;48717;55.556;37.816;2023-03-13T03:48:40;98414.03;;;-5.04;72.06
62655;BME280;48717;55.556;37.816;2023-03-13T03:51:09;98433.00;;;-4.78;71.78
62655;BME280;48717;55.556;37.816;2023-03-13T03:53:39;98430.91;;;-4.88;72.46
62655;BME280;48717;55.556;37.816;2023-03-13T03:56:06;98397.50;;;-5.11;71.50
62655;BME280;48717;55.556;37.816;2023-03-13T03:58:38;98399.34;;;-5.07;73.15
62655;BME280;48717;55.556;37.816;2023-03-13T04:01:14;98438.75;;;-4.85;71.28
62655;BME280;48717;55.556;37.816;2023-03-13T04:03:41;98439.94;;;-4.77;71.49
62655;BME280;48717;55.556;37.816;2023-03-13T04:06:09;98433.00;;;-4.78;70.45
62655;BME280;48717;55.556;37.816;2023-03-13T04:08:38;98452.53;;;-4.60;71.16
62655;BME280;48717;55.556;37.816;2023-03-13T04:11:05;98464.47;;;-4.62;70.51
62655;BME280;48717;55.556;37.816;2023-03-13T04:13:37;98465.72;;;-4.74;69.91
62655;BME280;48717;55.556;37.816;2023-03-13T04:16:08;98447.84;;;-4.70;70.66
62655;BME280;48717;55.556;37.816;2023-03-13T04:18:36;98416.13;;;-4.94;70.34
62655;BME280;48717;55.556;37.816;2023-03-13T04:21:04;98466.41;;;-4.55;71.36
62655;BME280;48717;55.556;37.816;2023-03-13T04:23:41;98461.91;;;-4.85;70.46
62655;BME280;48717;55.556;37.816;2023-03-13T04:26:08;98443.75;;;-4.65;70.27
62655;BME280;48717;55.556;37.816;2023-03-13T04:28:36;98469.72;;;-4.59;70.80
62655;BME280;48717;55.556;37.816;2023-03-13T04:31:06;98493.81;;;-4.57;70.22
62655;BME280;48717;55.556;37.816;2023-03-13T04:33:53;98468.91;;;-4.58;69.64
62655;BME280;48717;55.556;37.816;2023-03-13T04:36:42;98473.78;;;-4.66;70.74
62655;BME280;48717;55.556;37.816;2023-03-13T04:39:30;98500.94;;;-4.50;70.34
62655;BME280;48717;55.556;37.816;2023-03-13T04:42:13;98511.81;;;-4.34;69.59
62655;BME280;48717;55.556;37.816;2023-03-13T04:45:00;98496.22;;;-4.39;68.51
62655;BME280;48717;55.556;37.816;2023-03-13T04:47:40;98502.47;;;-4.32;68.88
62655;BME280;48717;55.556;37.816;2023-03-13T04:50:27;98527.91;;;-4.17;69.49
62655;BME280;48717;55.556;37.816;2023-03-13T04:53:09;98542.28;;;-3.98;67.76
62655;BME280;48717;55.556;37.816;2023-03-13T04:56:03;98538.69;;;-4.03;67.71
62655;BME280;48717;55.556;37.816;2023-03-13T04:58:30;98522.03;;;-3.88;67.33
62655;BME280;48717;55.556;37.816;2023-03-13T05:01:26;98496.50;;;-4.07;68.10
62655;BME280;48717;55.556;37.816;2023-03-13T05:03:59;98535.72;;;-3.89;67.70
62655;BME280;48717;55.556;37.816;2023-03-13T05:06:55;98553.94;;;-3.85;66.63
62655;BME280;48717;55.556;37.816;2023-03-13T05:09:41;98581.44;;;-3.35;65.90
62655;BME280;48717;55.556;37.816;2023-03-13T05:12:31;98576.94;;;-3.41;65.52
62655;BME280;48717;55.556;37.816;2023-03-13T05:15:24;98563.69;;;-3.51;65.01
62655;BME280;48717;55.556;37.816;2023-03-13T05:18:00;98572.63;;;-3.42;64.87
62655;BME280;48717;55.556;37.816;2023-03-13T05:20:37;98591.81;;;-3.07;64.08
62655;BME280;48717;55.556;37.816;2023-03-13T05:23:18;98569.44;;;-3.08;63.88
62655;BME280;48717;55.556;37.816;2023-03-13T05:26:02;98569.13;;;-3.18;64.42
62655;BME280;48717;55.556;37.816;2023-03-13T05:28:46;98574.81;;;-3.02;63.42
62655;BME280;48717;55.556;37.816;2023-03-13T05:31:29;98568.91;;;-3.24;63.24
62655;BME280;48717;55.556;37.816;2023-03-13T05:34:19;98589.13;;;-2.84;63.18
62655;BME280;48717;55.556;37.816;2023-03-13T05:37:04;98606.66;;;-3.00;62.79
62655;BME280;48717;55.556;37.816;2023-03-13T05:39:51;98601.97;;;-2.86;62.48
62655;BME280;48717;55.556;37.816;2023-03-13T05:42:35;98577.72;;;-2.91;61.81
62655;BME280;48717;55.556;37.816;2023-03-13T05:45:38;98616.50;;;-2.62;61.37
62655;BME280;48717;55.556;37.816;2023-03-13T05:48:25;98625.53;;;-2.49;61.63
62655;BME280;48717;55.556;37.816;2023-03-13T05:51:11;98624.75;;;-2.19;60.88
62655;BME280;48717;55.556;37.816;2023-03-13T05:54:11;98628.16;;;-1.91;60.01
62655;BME280;48717;55.556;37.816;2023-03-13T05:57:01;98621.50;;;-1.82;59.03
62655;BME280;48717;55.556;37.816;2023-03-13T05:59:38;98633.13;;;-1.68;57.86
62655;BME280;48717;55.556;37.816;2023-03-13T06:02:25;98617.41;;;-1.76;58.33
62655;BME280;48717;55.556;37.816;2023-03-13T06:04:52;98622.88;;;-1.65;57.39
62655;BME280;48717;55.556;37.816;2023-03-13T06:07:20;98650.16;;;-1.75;58.23
62655;BME280;48717;55.556;37.816;2023-03-13T06:09:47;98647.16;;;-1.89;58.01
62655;BME280;48717;55.556;37.816;2023-03-13T06:12:14;98665.13;;;-1.93;58.23
62655;BME280;48717;55.556;37.816;2023-03-13T06:14:42;98630.72;;;-2.20;57.43
62655;BME280;48717;55.556;37.816;2023-03-13T06:17:31;98629.06;;;-1.89;57.56
62655;BME280;48717;55.556;37.816;2023-03-13T06:19:59;98644.38;;;-1.35;57.04
62655;BME280;48717;55.556;37.816;2023-03-13T06:22:28;98647.91;;;-1.32;56.46
62655;BME280;48717;55.556;37.816;2023-03-13T06:24:56;98634.56;;;-1.47;56.77
62655;BME280;48717;55.556;37.816;2023-03-13T06:27:23;98666.16;;;-1.27;55.73
62655;BME280;48717;55.556;37.816;2023-03-13T06:29:50;98668.53;;;-1.35;56.02
62655;BME280;48717;55.556;37.816;2023-03-13T06:32:17;98677.66;;;-1.15;55.92
62655;BME280;48717;55.556;37.816;2023-03-13T06:34:44;98656.81;;;-1.22;55.85
62655;BME280;48717;55.556;37.816;2023-03-13T06:37:12;98681.06;;;-0.86;56.47
62655;BME280;48717;55.556;37.816;2023-03-13T06:39:38;98655.22;;;-1.16;55.65
62655;BME280;48717;55.556;37.816;2023-03-13T06:42:06;98644.59;;;-0.95;55.59
62655;BME280;48717;55.556;37.816;2023-03-13T06:44:33;98677.88;;;-0.75;54.95
62655;BME280;48717;55.556;37.816;2023-03-13T06:47:00;98663.41;;;-0.67;54.01
62655;BME280;48717;55.556;37.816;2023-03-13T06:49:27;98660.63;;;-0.41;53.23
62655;BME280;48717;55.556;37.816;2023-03-13T06:51:56;98689.25;;;-0.35;53.06
62655;BME280;48717;55.556;37.816;2023-03-13T06:54:24;98690.44;;;-0.20;52.07
62655;BME280;48717;55.556;37.816;2023-03-13T06:56:52;98640.97;;;-0.33;52.18
62655;BME280;48717;55.556;37.816;2023-03-13T06:59:19;98692.13;;;-0.22;51.90
62655;BME280;48717;55.556;37.816;2023-03-13T07:01:46;98690.47;;;0.18;51.86
62655;BME280;48717;55.556;37.816;2023-03-13T07:04:13;98693.22;;;0.66;51.26
62655;BME280;48717;55.556;37.816;2023-03-13T07:06:40;98703.91;;;0.82;50.59
62655;BME280;48717;55.556;37.816;2023-03-13T07:09:07;98708.38;;;0.89;50.23
62655;BME280;48717;55.556;37.816;2023-03-13T07:11:36;98638.16;;;0.36;49.79
62655;BME280;48717;55.556;37.816;2023-03-13T07:14:03;98712.34;;;0.71;50.91
62655;BME280;48717;55.556;37.816;2023-03-13T07:16:42;98717.91;;;0.90;49.68
62655;BME280;48717;55.556;37.816;2023-03-13T07:19:10;98685.88;;;0.88;49.09
62655;BME280;48717;55.556;37.816;2023-03-13T07:21:37;98724.09;;;1.40;48.28
62655;BME280;48717;55.556;37.816;2023-03-13T07:24:04;98726.66;;;1.38;48.27
62655;BME280;48717;55.556;37.816;2023-03-13T07:26:31;98729.63;;;1.62;47.52
62655;BME280;48717;55.556;37.816;2023-03-13T07:28:58;98725.56;;;1.76;47.68
62655;BME280;48717;55.556;37.816;2023-03-13T07:31:25;98731.19;;;1.50;47.14
62655;BME280;48717;55.556;37.816;2023-03-13T07:33:53;98746.44;;;1.32;46.37
62655;BME280;48717;55.556;37.816;2023-03-13T07:36:22;98748.75;;;1.64;46.93
62655;BME280;48717;55.556;37.816;2023-03-13T07:38:50;98750.34;;;2.09;45.64
62655;BME280;48717;55.556;37.816;2023-03-13T07:41:19;98759.47;;;2.38;44.03
62655;BME280;48717;55.556;37.816;2023-03-13T07:43:46;98763.88;;;2.44;44.77
62655;BME280;48717;55.556;37.816;2023-03-13T07:46:16;98762.28;;;2.52;45.05
62655;BME280;48717;55.556;37.816;2023-03-13T07:48:47;98756.84;;;3.02;45.35
62655;BME280;48717;55.556;37.816;2023-03-13T07:51:20;98764.25;;;2.69;44.49
62655;BME280;48717;55.556;37.816;2023-03-13T07:54:06;98779.78;;;2.07;44.72
62655;BME280;48717;55.556;37.816;2023-03-13T07:56:33;98767.44;;;1.93;45.15
62655;BME280;48717;55.556;37.816;2023-03-13T07:59:00;98744.72;;;1.34;46.43
62655;BME280;48717;55.556;37.816;2023-03-13T08:01:28;98786.78;;;1.60;46.11
62655;BME280;48717;55.556;37.816;2023-03-13T08:03:57;98789.03;;;1.40;47.19
62655;BME280;48717;55.556;37.816;2023-03-13T08:06:30;98775.56;;;1.61;47.52
62655;BME280;48717;55.556;37.816;2023-03-13T08:09:00;98800.41;;;1.48;46.39
62655;BME280;48717;55.556;37.816;2023-03-13T08:11:28;98791.28;;;1.69;46.98
62655;BME280;48717;55.556;37.816;2023-03-13T08:13:56;98799.31;;;1.81;46.73
62655;BME280;48717;55.556;37.816;2023-03-13T08:16:31;98787.31;;;1.90;47.47
62655;BME280;48717;55.556;37.816;2023-03-13T08:19:01;98793.19;;;1.78;47.15
62655;BME280;48717;55.556;37.816;2023-03-13T08:21:33;98797.56;;;1.80;49.00
62655;BME280;48717;55.556;37.816;2023-03-13T08:24:03;98785.84;;;1.56;48.37
62655;BME280;48717;55.556;37.816;2023-03-13T08:26:35;98810.66;;;1.87;47.63
62655;BME280;48717;55.556;37.816;2023-03-13T08:29:04;98805.44;;;2.38;46.62
62655;BME280;48717;55.556;37.816;2023-03-13T08:31:37;98804.50;;;2.34;46.54
62655;BME280;48717;55.556;37.816;2023-03-13T08:34:05;98821.19;;;1.94;46.25
62655;BME280;48717;55.556;37.816;2023-03-13T08:36:36;98807.88;;;2.27;47.10
62655;BME280;48717;55.556;37.816;2023-03-13T08:39:10;98819.28;;;2.37;47.81
62655;BME280;48717;55.556;37.816;2023-03-13T08:41:37;98777.31;;;2.13;46.63
62655;BME280;48717;55.556;37.816;2023-03-13T08:44:09;98771.47;;;2.30;45.90
62655;BME280;48717;55.556;37.816;2023-03-13T08:46:37;98813.59;;;2.07;46.22
62655;BME280;48717;55.556;37.816;2023-03-13T08:49:06;98809.38;;;2.14;47.17
62655;BME280;48717;55.556;37.816;2023-03-13T08:51:34;98756.94;;;1.38;48.33
62655;BME280;48717;55.556;37.816;2023-03-13T08:54:02;98783.28;;;1.13;48.35
62655;BME280;48717;55.556;37.816;2023-03-13T08:56:30;98835.44;;;1.24;49.92
62655;BME280;48717;55.556;37.816;2023-03-13T08:59:08;98806.97;;;1.27;50.68
62655;BME280;48717;55.556;37.816;2023-03-13T09:01:45;98829.38;;;1.22;50.97
62655;BME280;48717;55.556;37.816;2023-03-13T09:04:20;98823.59;;;1.39;50.60
62655;BME280;48717;55.556;37.816;2023-03-13T09:06:47;98839.44;;;1.51;50.13
62655;BME280;48717;55.556;37.816;2023-03-13T09:09:14;98826.34;;;1.91;50.13
62655;BME280;48717;55.556;37.816;2023-03-13T09:11:42;98832.72;;;2.11;50.80
62655;BME280;48717;55.556;37.816;2023-03-13T09:14:09;98829.03;;;1.98;50.89
62655;BME280;48717;55.556;37.816;2023-03-13T09:16:36;98837.16;;;2.16;50.96
62655;BME280;48717;55.556;37.816;2023-03-13T09:19:03;98860.06;;;2.38;51.30
62655;BME280;48717;55.556;37.816;2023-03-13T09:21:33;98829.59;;;2.30;50.49
62655;BME280;48717;55.556;37.816;2023-03-13T09:24:01;98835.69;;;2.31;49.93
62655;BME280;48717;55.556;37.816;2023-03-13T09:26:28;98843.31;;;2.76;49.48
62655;BME280;48717;55.556;37.816;2023-03-13T09:28:56;98848.75;;;2.35;50.62
62655;BME280;48717;55.556;37.816;2023-03-13T09:31:28;98858.91;;;2.20;49.07
62655;BME280;48717;55.556;37.816;2023-03-13T09:33:57;98853.19;;;1.92;49.53
62655;BME280;48717;55.556;37.816;2023-03-13T09:36:25;98882.59;;;1.88;51.17
62655;BME280;48717;55.556;37.816;2023-03-13T09:38:57;98865.78;;;2.18;52.23
62655;BME280;48717;55.556;37.816;2023-03-13T09:41:38;98861.16;;;2.01;51.76
62655;BME280;48717;55.556;37.816;2023-03-13T09:44:17;98881.25;;;2.61;51.18
62655;BME280;48717;55.556;37.816;2023-03-13T09:49:38;98885.69;;;2.67;48.70
62655;BME280;48717;55.556;37.816;2023-03-13T09:52:11;98895.63;;;1.89;50.12
62655;BME280;48717;55.556;37.816;2023-03-13T10:00:07;98913.38;;;1.24;52.85
62655;BME280;48717;55.556;37.816;2023-03-13T10:02:40;98922.56;;;1.10;53.26
62655;BME280;48717;55.556;37.816;2023-03-13T10:05:19;98888.69;;;1.05;54.21
62655;BME280;48717;55.556;37.816;2023-03-13T10:07:47;98908.84;;;1.15;54.19
62655;BME280;48717;55.556;37.816;2023-03-13T10:10:17;98908.63;;;1.04;53.99
62655;BME280;48717;55.556;37.816;2023-03-13T10:12:47;98937.75;;;0.93;54.41
62655;BME280;48717;55.556;37.816;2023-03-13T10:17:50;98910.50;;;0.73;55.06
62655;BME280;48717;55.556;37.816;2023-03-13T10:22:58;98891.25;;;1.03;53.71
62655;BME280;48717;55.556;37.816;2023-03-13T10:27:59;98885.88;;;0.94;53.85
62655;BME280;48717;55.556;37.816;2023-03-13T10:30:32;98914.22;;;1.23;54.12
62655;BME280;48717;55.556;37.816;2023-03-13T10:35:39;98951.03;;;0.70;56.27
62655;BME280;48717;55.556;37.816;2023-03-13T10:38:16;98937.66;;;0.52;56.53
62655;BME280;48717;55.556;37.816;2023-03-13T10:40:56;98853.00;;;-0.13;56.19
62655;BME280;48717;55.556;37.816;2023-03-13T10:43:25;98948.56;;;0.39;56.33
62655;BME280;48717;55.556;37.816;2023-03-13T10:45:53;98934.66;;;0.37;56.29
62655;BME280;48717;55.556;37.816;2023-03-13T10:48:29;98933.84;;;0.38;56.96
62655;BME280;48717;55.556;37.816;2023-03-13T10:50:56;98944.47;;;0.15;57.11
62655;BME280;48717;55.556;37.816;2023-03-13T10:55:59;98969.31;;;0.07;57.35
62655;BME280;48717;55.556;37.816;2023-03-13T11:01:26;98975.75;;;0.21;58.08
62655;BME280;48717;55.556;37.816;2023-03-13T11:04:35;98962.78;;;-0.11;58.60
62655;BME280;48717;55.556;37.816;2023-03-13T11:07:20;98966.69;;;-0.25;59.05
62655;BME280;48717;55.556;37.816;2023-03-13T11:09:58;98968.09;;;0.26;59.37
62655;BME280;48717;55.556;37.816;2023-03-13T11:12:27;98980.44;;;0.03;60.99
62655;BME280;48717;55.556;37.816;2023-03-13T11:14:58;98981.09;;;0.28;60.30
62655;BME280;48717;55.556;37.816;2023-03-13T11:17:35;98972.63;;;0.01;61.91
62655;BME280;48717;55.556;37.816;2023-03-13T11:20:23;99005.56;;;-1.10;65.71
62655;BME280;48717;55.556;37.816;2023-03-13T11:23:10;99007.72;;;-1.74;69.48
62655;BME280;48717;55.556;37.816;2023-03-13T11:31:02;99000.25;;;-1.91;68.58
62655;BME280;48717;55.556;37.816;2023-03-13T11:34:04;99017.75;;;-1.84;68.18
62655;BME280;48717;55.556;37.816;2023-03-13T11:36:34;99022.78;;;-1.87;67.47
62655;BME280;48717;55.556;37.816;2023-03-13T11:39:16;98998.81;;;-1.82;67.17
62655;BME280;48717;55.556;37.816;2023-03-13T11:47:30;99006.63;;;-1.03;67.05
62655;BME280;48717;55.556;37.816;2023-03-13T11:50:10;99014.78;;;-1.18;66.71
62655;BME280;48717;55.556;37.816;2023-03-13T12:01:11;99033.09;;;-0.86;65.54
62655;BME280;48717;55.556;37.816;2023-03-13T12:06:33;99046.34;;;-1.02;66.10
62655;BME280;48717;55.556;37.816;2023-03-13T12:09:15;99033.88;;;-0.87;65.79
62655;BME280;48717;55.556;37.816;2023-03-13T12:14:34;99037.09;;;-0.10;66.46
62655;BME280;48717;55.556;37.816;2023-03-13T12:17:09;99039.16;;;0.33;63.32
62655;BME280;48717;55.556;37.816;2023-03-13T12:22:27;99038.41;;;0.37;61.02
62655;BME280;48717;55.556;37.816;2023-03-13T12:25:01;99043.91;;;0.17;60.70
62655;BME280;48717;55.556;37.816;2023-03-13T12:27:37;98999.78;;;-0.17;60.15
62655;BME280;48717;55.556;37.816;2023-03-13T12:30:32;99048.44;;;0.57;59.87
62655;BME280;48717;55.556;37.816;2023-03-13T12:35:31;99049.00;;;1.51;57.17
62655;BME280;48717;55.556;37.816;2023-03-13T12:38:09;99073.03;;;1.40;55.26
62655;BME280;48717;55.556;37.816;2023-03-13T12:40:50;99043.72;;;1.46;55.24
62655;BME280;48717;55.556;37.816;2023-03-13T12:43:27;99054.59;;;1.29;53.12
62655;BME280;48717;55.556;37.816;2023-03-13T12:51:37;99046.25;;;2.69;50.36
62655;BME280;48717;55.556;37.816;2023-03-13T13:01:58;99026.47;;;1.13;51.10
62655;BME280;48717;55.556;37.816;2023-03-13T13:04:29;99038.81;;;0.52;53.70
62655;BME280;48717;55.556;37.816;2023-03-13T13:07:05;99068.84;;;0.76;52.53
62655;BME280;48717;55.556;37.816;2023-03-13T13:09:35;99072.44;;;0.82;51.55
62655;BME280;48717;55.556;37.816;2023-03-13T13:12:17;99070.81;;;0.51;53.58
62655;BME280;48717;55.556;37.816;2023-03-13T13:17:29;99064.59;;;0.46;53.26
62655;BME280;48717;55.556;37.816;2023-03-13T13:20:38;99078.88;;;0.32;53.97
62655;BME280;48717;55.556;37.816;2023-03-13T13:23:27;99090.53;;;0.16;54.65
62655;BME280;48717;55.556;37.816;2023-03-13T13:45:35;99106.56;;;-0.55;53.01
62655;BME280;48717;55.556;37.816;2023-03-13T13:56:46;99117.78;;;-0.54;55.61
62655;BME280;48717;55.556;37.816;2023-03-13T14:02:10;99107.38;;;-0.56;55.86
62655;BME280;48717;55.556;37.816;2023-03-13T14:04:48;99108.91;;;-0.35;54.73
62655;BME280;48717;55.556;37.816;2023-03-13T14:07:20;99119.03;;;-0.14;52.92
62655;BME280;48717;55.556;37.816;2023-03-13T14:15:18;99136.84;;;-0.24;52.64
62655;BME280;48717;55.556;37.816;2023-03-13T14:17:56;99139.41;;;-0.54;53.92
62655;BME280;48717;55.556;37.816;2023-03-13T14:20:27;99135.47;;;-0.68;54.42
62655;BME280;48717;55.556;37.816;2023-03-13T14:22:57;99151.94;;;-0.66;53.92
62655;BME280;48717;55.556;37.816;2023-03-13T14:25:39;99141.47;;;-0.69;53.12
62655;BME280;48717;55.556;37.816;2023-03-13T14:28:15;99148.94;;;-0.79;54.08
62655;BME280;48717;55.556;37.816;2023-03-13T14:30:44;99126.50;;;-1.04;53.08
62655;BME280;48717;55.556;37.816;2023-03-13T14:33:12;99155.66;;;-0.84;53.57
62655;BME280;48717;55.556;37.816;2023-03-13T14:35:40;99128.19;;;-1.05;52.62
62655;BME280;48717;55.556;37.816;2023-03-13T14:38:19;99165.47;;;-0.75;54.28
62655;BME280;48717;55.556;37.816;2023-03-13T14:40:47;99147.72;;;-0.62;52.88
62655;BME280;48717;55.556;37.816;2023-03-13T14:43:19;99164.41;;;-0.54;51.86
62655;BME280;48717;55.556;37.816;2023-03-13T14:45:47;99165.78;;;-0.38;51.96
62655;BME280;48717;55.556;37.816;2023-03-13T14:48:22;99159.38;;;-0.49;51.98
62655;BME280;48717;55.556;37.816;2023-03-13T14:50:52;99135.66;;;-0.62;52.33
62655;BME280;48717;55.556;37.816;2023-03-13T14:53:39;99169.44;;;-0.85;51.08
62655;BME280;48717;55.556;37.816;2023-03-13T14:56:31;99180.91;;;-1.02;52.05
62655;BME280;48717;55.556;37.816;2023-03-13T14:59:25;99178.59;;;-1.19;51.81
62655;BME280;48717;55.556;37.816;2023-03-13T15:02:13;99155.63;;;-1.59;52.67
62655;BME280;48717;55.556;37.816;2023-03-13T15:07:46;99190.88;;;-1.61;53.35
62655;BME280;48717;55.556;37.816;2023-03-13T15:10:20;99205.22;;;-1.69;54.19
62655;BME280;48717;55.556;37.816;2023-03-13T15:12:48;99201.66;;;-1.73;55.11
62655;BME280;48717;55.556;37.816;2023-03-13T15:15:16;99219.19;;;-1.87;54.60
62655;BME280;48717;55.556;37.816;2023-03-13T15:17:44;99197.16;;;-2.00;55.62
62655;BME280;48717;55.556;37.816;2023-03-13T15:20:15;99218.84;;;-1.96;55.72